sensor_id;sensor_type;location;lat;lon;timestamp;temperature;humidity
18797;DHT22;9526;52.612;13.300;2022-09-12T00:01:46;13.30;99.90
18797;DHT22;9526;52.612;13.300;2022-09-12T00:04:10;13.20;99.90
18797;DHT22;9526;52.612;13.300;2022-09-12T00:06:35;13.20;99.90
18797;DHT22;9526;52.612;13.300;2022-09-12T00:09:03;13.10;99.90
18797;DHT22;9526;52.612;13.300;2022-09-12T00:11:29;13.10;99.90
18797;DHT22;9526;52.612;13.300;2022-09-12T00:13:55;13.00;99.90
18797;DHT22;9526;52.612;13.300;2022-09-12T00:16:21;13.00;99.90
18797;DHT22;9526;52.612;13.300;2022-09-12T00:18:46;13.00;99.90
18797;DHT22;9526;52.612;13.300;2022-09-12T00:21:10;13.00;99.90
18797;DHT22;9526;52.612;13.300;2022-09-12T00:23:34;12.90;99.90
18797;DHT22;9526;52.612;13.300;2022-09-12T00:26:02;12.90;99.90
18797;DHT22;9526;52.612;13.300;2022-09-12T00:28:26;12.90;99.90
18797;DHT22;9526;52.612;13.300;2022-09-12T00:30:50;12.80;99.90
18797;DHT22;9526;52.612;13.300;2022-09-12T00:33:15;12.80;99.90
18797;DHT22;9526;52.612;13.300;2022-09-12T00:35:41;12.80;99.90
18797;DHT22;9526;52.612;13.300;2022-09-12T00:38:05;12.70;99.90
18797;DHT22;9526;52.612;13.300;2022-09-12T00:40:29;12.70;99.90
18797;DHT22;9526;52.612;13.300;2022-09-12T00:42:53;12.70;99.90
18797;DHT22;9526;52.612;13.300;2022-09-12T00:45:22;12.60;99.90
18797;DHT22;9526;52.612;13.300;2022-09-12T00:47:46;12.60;99.90
18797;DHT22;9526;52.612;13.300;2022-09-12T00:50:12;12.60;99.90
18797;DHT22;9526;52.612;13.300;2022-09-12T00:52:42;12.50;99.90
18797;DHT22;9526;52.612;13.300;2022-09-12T00:55:10;12.50;99.90
18797;DHT22;9526;52.612;13.300;2022-09-12T00:57:40;12.50;99.90
18797;DHT22;9526;52.612;13.300;2022-09-12T01:00:11;12.40;99.90
18797;DHT22;9526;52.612;13.300;2022-09-12T01:02:37;12.40;99.90
18797;DHT22;9526;52.612;13.300;2022-09-12T01:05:00;12.40;99.90
18797;DHT22;9526;52.612;13.300;2022-09-12T01:07:24;12.30;99.90
18797;DHT22;9526;52.612;13.300;2022-09-12T01:09:48;12.30;99.90
18797;DHT22;9526;52.612;13.300;2022-09-12T01:12:14;12.30;99.90
18797;DHT22;9526;52.612;13.300;2022-09-12T01:14:38;12.30;99.90
18797;DHT22;9526;52.612;13.300;2022-09-12T01:17:03;12.20;99.90
18797;DHT22;9526;52.612;13.300;2022-09-12T01:20:03;12.20;99.90
18797;DHT22;9526;52.612;13.300;2022-09-12T01:23:10;12.10;99.90
18797;DHT22;9526;52.612;13.300;2022-09-12T01:26:14;12.10;99.90
18797;DHT22;9526;52.612;13.300;2022-09-12T01:29:19;12.10;99.90
18797;DHT22;9526;52.612;13.300;2022-09-12T01:32:00;12.00;99.90
18797;DHT22;9526;52.612;13.300;2022-09-12T01:34:35;12.00;99.90
18797;DHT22;9526;52.612;13.300;2022-09-12T01:37:09;12.00;99.90
18797;DHT22;9526;52.612;13.300;2022-09-12T01:39:40;12.00;99.90
18797;DHT22;9526;52.612;13.300;2022-09-12T01:42:21;12.00;99.90
18797;DHT22;9526;52.612;13.300;2022-09-12T01:44:51;11.90;99.90
18797;DHT22;9526;52.612;13.300;2022-09-12T01:47:22;11.90;99.90
18797;DHT22;9526;52.612;13.300;2022-09-12T01:49:58;11.90;99.90
18797;DHT22;9526;52.612;13.300;2022-09-12T01:52:26;11.90;99.90
18797;DHT22;9526;52.612;13.300;2022-09-12T01:54:56;11.80;99.90
18797;DHT22;9526;52.612;13.300;2022-09-12T01:57:27;11.80;99.90
18797;DHT22;9526;52.612;13.300;2022-09-12T01:59:57;11.80;99.90
18797;DHT22;9526;52.612;13.300;2022-09-12T02:02:27;11.80;99.90
18797;DHT22;9526;52.612;13.300;2022-09-12T02:04:59;11.70;99.90
18797;DHT22;9526;52.612;13.300;2022-09-12T02:07:28;11.70;99.90
18797;DHT22;9526;52.612;13.300;2022-09-12T02:09:55;11.70;99.90
18797;DHT22;9526;52.612;13.300;2022-09-12T02:12:26;11.70;99.90
18797;DHT22;9526;52.612;13.300;2022-09-12T02:14:57;11.70;99.90
18797;DHT22;9526;52.612;13.300;2022-09-12T02:17:26;11.60;99.90
18797;DHT22;9526;52.612;13.300;2022-09-12T02:19:56;11.60;99.90
18797;DHT22;9526;52.612;13.300;2022-09-12T02:22:22;11.50;99.90
18797;DHT22;9526;52.612;13.300;2022-09-12T02:24:51;11.50;99.90
18797;DHT22;9526;52.612;13.300;2022-09-12T02:27:20;11.50;99.90
18797;DHT22;9526;52.612;13.300;2022-09-12T02:29:46;11.40;99.90
18797;DHT22;9526;52.612;13.300;2022-09-12T02:32:17;11.40;99.90
18797;DHT22;9526;52.612;13.300;2022-09-12T02:34:53;11.40;99.90
18797;DHT22;9526;52.612;13.300;2022-09-12T02:37:26;11.40;99.90
18797;DHT22;9526;52.612;13.300;2022-09-12T02:39:56;11.30;99.90
18797;DHT22;9526;52.612;13.300;2022-09-12T02:42:21;11.30;99.90
18797;DHT22;9526;52.612;13.300;2022-09-12T02:44:45;11.30;99.90
18797;DHT22;9526;52.612;13.300;2022-09-12T02:47:13;11.30;99.90
18797;DHT22;9526;52.612;13.300;2022-09-12T02:49:39;11.30;99.90
18797;DHT22;9526;52.612;13.300;2022-09-12T02:52:04;11.30;99.90
18797;DHT22;9526;52.612;13.300;2022-09-12T02:54:28;11.30;99.90
18797;DHT22;9526;52.612;13.300;2022-09-12T02:56:52;11.30;99.90
18797;DHT22;9526;52.612;13.300;2022-09-12T02:59:18;11.30;99.90
18797;DHT22;9526;52.612;13.300;2022-09-12T03:01:59;11.30;99.90
18797;DHT22;9526;52.612;13.300;2022-09-12T03:04:39;11.30;99.90
18797;DHT22;9526;52.612;13.300;2022-09-12T03:07:15;11.20;99.90
18797;DHT22;9526;52.612;13.300;2022-09-12T03:09:46;11.20;99.90
18797;DHT22;9526;52.612;13.300;2022-09-12T03:12:23;11.20;99.90
18797;DHT22;9526;52.612;13.300;2022-09-12T03:15:01;11.20;99.90
18797;DHT22;9526;52.612;13.300;2022-09-12T03:17:42;11.20;99.90
18797;DHT22;9526;52.612;13.300;2022-09-12T03:20:14;11.10;99.90
18797;DHT22;9526;52.612;13.300;2022-09-12T03:22:46;11.10;99.90
18797;DHT22;9526;52.612;13.300;2022-09-12T03:25:17;11.10;99.90
18797;DHT22;9526;52.612;13.300;2022-09-12T03:27:47;11.00;99.90
18797;DHT22;9526;52.612;13.300;2022-09-12T03:30:16;11.10;99.90
18797;DHT22;9526;52.612;13.300;2022-09-12T03:32:41;11.10;99.90
18797;DHT22;9526;52.612;13.300;2022-09-12T03:35:06;11.10;99.90
18797;DHT22;9526;52.612;13.300;2022-09-12T03:37:30;11.00;99.90
18797;DHT22;9526;52.612;13.300;2022-09-12T03:39:55;11.00;99.90
18797;DHT22;9526;52.612;13.300;2022-09-12T03:42:19;11.00;99.90
18797;DHT22;9526;52.612;13.300;2022-09-12T03:44:42;11.00;99.90
18797;DHT22;9526;52.612;13.300;2022-09-12T03:47:06;11.00;99.90
18797;DHT22;9526;52.612;13.300;2022-09-12T03:49:32;10.90;99.90
18797;DHT22;9526;52.612;13.300;2022-09-12T03:51:55;10.90;99.90
18797;DHT22;9526;52.612;13.300;2022-09-12T03:54:19;10.90;99.90
18797;DHT22;9526;52.612;13.300;2022-09-12T03:56:44;10.90;99.90
18797;DHT22;9526;52.612;13.300;2022-09-12T03:59:08;10.90;99.90
18797;DHT22;9526;52.612;13.300;2022-09-12T04:01:31;10.90;99.90
18797;DHT22;9526;52.612;13.300;2022-09-12T04:03:55;10.80;99.90
18797;DHT22;9526;52.612;13.300;2022-09-12T04:06:21;10.80;99.90
18797;DHT22;9526;52.612;13.300;2022-09-12T04:08:47;10.80;99.90
18797;DHT22;9526;52.612;13.300;2022-09-12T04:11:13;10.70;99.90
18797;DHT22;9526;52.612;13.300;2022-09-12T04:13:40;10.70;99.90
18797;DHT22;9526;52.612;13.300;2022-09-12T04:16:05;10.70;99.90
18797;DHT22;9526;52.612;13.300;2022-09-12T04:18:29;10.70;99.90
18797;DHT22;9526;52.612;13.300;2022-09-12T04:20:53;10.70;99.90
18797;DHT22;9526;52.612;13.300;2022-09-12T04:23:16;10.70;99.90
18797;DHT22;9526;52.612;13.300;2022-09-12T04:25:40;10.70;99.90
18797;DHT22;9526;52.612;13.300;2022-09-12T04:28:04;10.60;99.90
18797;DHT22;9526;52.612;13.300;2022-09-12T04:30:29;10.60;99.90
18797;DHT22;9526;52.612;13.300;2022-09-12T04:32:52;10.60;99.90
18797;DHT22;9526;52.612;13.300;2022-09-12T04:35:16;10.60;99.90
18797;DHT22;9526;52.612;13.300;2022-09-12T04:37:39;10.60;99.90
18797;DHT22;9526;52.612;13.300;2022-09-12T04:40:03;10.50;99.90
18797;DHT22;9526;52.612;13.300;2022-09-12T04:42:28;10.50;99.90
18797;DHT22;9526;52.612;13.300;2022-09-12T04:44:52;10.50;99.90
18797;DHT22;9526;52.612;13.300;2022-09-12T04:47:17;10.60;99.90
18797;DHT22;9526;52.612;13.300;2022-09-12T04:49:40;10.50;99.90
18797;DHT22;9526;52.612;13.300;2022-09-12T04:52:04;10.50;99.90
18797;DHT22;9526;52.612;13.300;2022-09-12T04:54:28;10.50;99.90
18797;DHT22;9526;52.612;13.300;2022-09-12T04:56:52;10.50;99.90
18797;DHT22;9526;52.612;13.300;2022-09-12T04:59:18;10.50;99.90
18797;DHT22;9526;52.612;13.300;2022-09-12T05:01:42;10.50;99.90
18797;DHT22;9526;52.612;13.300;2022-09-12T05:04:08;10.50;99.90
18797;DHT22;9526;52.612;13.300;2022-09-12T05:06:34;10.60;99.90
18797;DHT22;9526;52.612;13.300;2022-09-12T05:09:00;10.50;99.90
18797;DHT22;9526;52.612;13.300;2022-09-12T05:11:25;10.60;99.90
18797;DHT22;9526;52.612;13.300;2022-09-12T05:14:10;10.60;99.90
18797;DHT22;9526;52.612;13.300;2022-09-12T05:16:34;10.50;99.90
18797;DHT22;9526;52.612;13.300;2022-09-12T05:18:58;10.60;99.90
18797;DHT22;9526;52.612;13.300;2022-09-12T05:21:24;10.60;99.90
18797;DHT22;9526;52.612;13.300;2022-09-12T05:23:50;10.60;99.90
18797;DHT22;9526;52.612;13.300;2022-09-12T05:26:15;10.60;99.90
18797;DHT22;9526;52.612;13.300;2022-09-12T05:28:40;10.70;99.90
18797;DHT22;9526;52.612;13.300;2022-09-12T05:31:06;10.70;99.90
18797;DHT22;9526;52.612;13.300;2022-09-12T05:33:32;10.70;99.90
18797;DHT22;9526;52.612;13.300;2022-09-12T05:35:56;10.70;99.90
18797;DHT22;9526;52.612;13.300;2022-09-12T05:38:21;10.70;99.90
18797;DHT22;9526;52.612;13.300;2022-09-12T05:40:45;10.80;99.90
18797;DHT22;9526;52.612;13.300;2022-09-12T05:43:09;10.90;99.90
18797;DHT22;9526;52.612;13.300;2022-09-12T05:45:33;11.00;99.90
18797;DHT22;9526;52.612;13.300;2022-09-12T05:47:57;11.00;99.90
18797;DHT22;9526;52.612;13.300;2022-09-12T05:50:20;11.10;99.90
18797;DHT22;9526;52.612;13.300;2022-09-12T05:52:44;11.20;99.90
18797;DHT22;9526;52.612;13.300;2022-09-12T05:55:09;11.20;99.90
18797;DHT22;9526;52.612;13.300;2022-09-12T05:57:33;11.30;99.90
18797;DHT22;9526;52.612;13.300;2022-09-12T05:59:57;11.50;99.90
18797;DHT22;9526;52.612;13.300;2022-09-12T06:02:20;11.70;99.90
18797;DHT22;9526;52.612;13.300;2022-09-12T06:04:44;12.00;99.90
18797;DHT22;9526;52.612;13.300;2022-09-12T06:07:08;12.60;99.90
18797;DHT22;9526;52.612;13.300;2022-09-12T06:09:31;13.20;99.90
18797;DHT22;9526;52.612;13.300;2022-09-12T06:11:56;13.80;99.90
18797;DHT22;9526;52.612;13.300;2022-09-12T06:14:20;14.40;99.90
18797;DHT22;9526;52.612;13.300;2022-09-12T06:16:44;14.90;99.90
18797;DHT22;9526;52.612;13.300;2022-09-12T06:19:13;15.40;99.90
18797;DHT22;9526;52.612;13.300;2022-09-12T06:21:37;16.00;99.90
18797;DHT22;9526;52.612;13.300;2022-09-12T06:24:01;16.40;99.90
18797;DHT22;9526;52.612;13.300;2022-09-12T06:26:25;16.70;99.90
18797;DHT22;9526;52.612;13.300;2022-09-12T06:28:53;17.20;99.90
18797;DHT22;9526;52.612;13.300;2022-09-12T06:31:19;17.60;99.90
18797;DHT22;9526;52.612;13.300;2022-09-12T06:33:45;17.90;99.90
18797;DHT22;9526;52.612;13.300;2022-09-12T06:36:12;18.50;99.90
18797;DHT22;9526;52.612;13.300;2022-09-12T06:38:37;18.80;99.90
18797;DHT22;9526;52.612;13.300;2022-09-12T06:41:02;18.90;99.90
18797;DHT22;9526;52.612;13.300;2022-09-12T06:43:27;19.00;99.90
18797;DHT22;9526;52.612;13.300;2022-09-12T06:45:53;19.50;99.90
18797;DHT22;9526;52.612;13.300;2022-09-12T06:48:17;19.80;99.90
18797;DHT22;9526;52.612;13.300;2022-09-12T06:50:41;20.20;99.90
18797;DHT22;9526;52.612;13.300;2022-09-12T06:53:04;20.50;99.90
18797;DHT22;9526;52.612;13.300;2022-09-12T06:55:28;20.90;99.90
18797;DHT22;9526;52.612;13.300;2022-09-12T06:57:51;21.20;99.90
18797;DHT22;9526;52.612;13.300;2022-09-12T07:00:16;21.20;99.90
18797;DHT22;9526;52.612;13.300;2022-09-12T07:02:41;21.30;99.90
18797;DHT22;9526;52.612;13.300;2022-09-12T07:05:06;21.40;99.90
18797;DHT22;9526;52.612;13.300;2022-09-12T07:07:30;21.30;99.90
18797;DHT22;9526;52.612;13.300;2022-09-12T07:09:55;21.10;99.90
18797;DHT22;9526;52.612;13.300;2022-09-12T07:12:19;21.00;99.90
18797;DHT22;9526;52.612;13.300;2022-09-12T07:14:42;20.90;99.90
18797;DHT22;9526;52.612;13.300;2022-09-12T07:17:06;20.60;99.90
18797;DHT22;9526;52.612;13.300;2022-09-12T07:19:32;20.40;99.90
18797;DHT22;9526;52.612;13.300;2022-09-12T07:21:55;20.20;99.90
18797;DHT22;9526;52.612;13.300;2022-09-12T07:24:19;19.80;99.90
18797;DHT22;9526;52.612;13.300;2022-09-12T07:26:43;19.60;99.90
18797;DHT22;9526;52.612;13.300;2022-09-12T07:29:11;19.50;99.90
18797;DHT22;9526;52.612;13.300;2022-09-12T07:31:57;19.40;99.90
18797;DHT22;9526;52.612;13.300;2022-09-12T07:34:22;19.20;99.90
18797;DHT22;9526;52.612;13.300;2022-09-12T07:36:47;19.10;99.90
18797;DHT22;9526;52.612;13.300;2022-09-12T07:39:10;19.10;99.90
18797;DHT22;9526;52.612;13.300;2022-09-12T07:41:34;19.10;99.90
18797;DHT22;9526;52.612;13.300;2022-09-12T07:43:59;19.00;99.90
18797;DHT22;9526;52.612;13.300;2022-09-12T07:46:24;18.90;99.90
18797;DHT22;9526;52.612;13.300;2022-09-12T07:48:49;18.80;99.90
18797;DHT22;9526;52.612;13.300;2022-09-12T07:51:13;18.70;99.90
18797;DHT22;9526;52.612;13.300;2022-09-12T07:53:39;18.70;99.90
18797;DHT22;9526;52.612;13.300;2022-09-12T07:56:04;18.70;99.90
18797;DHT22;9526;52.612;13.300;2022-09-12T07:58:30;18.60;99.90
18797;DHT22;9526;52.612;13.300;2022-09-12T08:00:54;18.40;99.90
18797;DHT22;9526;52.612;13.300;2022-09-12T08:03:24;18.40;99.90
18797;DHT22;9526;52.612;13.300;2022-09-12T08:05:47;18.60;99.90
18797;DHT22;9526;52.612;13.300;2022-09-12T08:08:11;18.60;99.90
18797;DHT22;9526;52.612;13.300;2022-09-12T08:10:36;18.50;99.90
18797;DHT22;9526;52.612;13.300;2022-09-12T08:12:59;18.50;99.90
18797;DHT22;9526;52.612;13.300;2022-09-12T08:15:23;18.30;99.90
18797;DHT22;9526;52.612;13.300;2022-09-12T08:17:47;18.30;99.90
18797;DHT22;9526;52.612;13.300;2022-09-12T08:20:11;18.20;99.90
18797;DHT22;9526;52.612;13.300;2022-09-12T08:22:34;18.20;99.90
18797;DHT22;9526;52.612;13.300;2022-09-12T08:24:58;18.20;99.90
18797;DHT22;9526;52.612;13.300;2022-09-12T08:27:23;18.20;99.90
18797;DHT22;9526;52.612;13.300;2022-09-12T08:29:46;18.00;99.90
18797;DHT22;9526;52.612;13.300;2022-09-12T08:32:10;18.00;99.90
18797;DHT22;9526;52.612;13.300;2022-09-12T08:34:33;18.10;99.90
18797;DHT22;9526;52.612;13.300;2022-09-12T08:36:57;18.10;99.90
18797;DHT22;9526;52.612;13.300;2022-09-12T08:39:21;18.00;99.90
18797;DHT22;9526;52.612;13.300;2022-09-12T08:41:46;18.00;99.90
18797;DHT22;9526;52.612;13.300;2022-09-12T08:47:20;18.10;99.90
18797;DHT22;9526;52.612;13.300;2022-09-12T08:49:52;18.30;99.90
18797;DHT22;9526;52.612;13.300;2022-09-12T08:52:27;18.30;99.90
18797;DHT22;9526;52.612;13.300;2022-09-12T08:54:53;18.40;99.90
18797;DHT22;9526;52.612;13.300;2022-09-12T08:57:17;18.40;99.90
18797;DHT22;9526;52.612;13.300;2022-09-12T08:59:43;18.30;99.90
18797;DHT22;9526;52.612;13.300;2022-09-12T09:02:27;18.40;99.90
18797;DHT22;9526;52.612;13.300;2022-09-12T09:05:09;18.50;99.90
18797;DHT22;9526;52.612;13.300;2022-09-12T09:10:49;18.60;99.90
18797;DHT22;9526;52.612;13.300;2022-09-12T09:13:27;18.60;99.90
18797;DHT22;9526;52.612;13.300;2022-09-12T09:16:19;18.60;99.90
18797;DHT22;9526;52.612;13.300;2022-09-12T09:18:49;18.90;99.90
18797;DHT22;9526;52.612;13.300;2022-09-12T09:21:20;19.00;99.90
18797;DHT22;9526;52.612;13.300;2022-09-12T09:23:49;19.10;99.90
18797;DHT22;9526;52.612;13.300;2022-09-12T09:26:18;19.20;99.90
18797;DHT22;9526;52.612;13.300;2022-09-12T09:28:50;19.40;99.90
18797;DHT22;9526;52.612;13.300;2022-09-12T09:31:19;19.50;99.90
18797;DHT22;9526;52.612;13.300;2022-09-12T09:33:48;19.70;99.90
18797;DHT22;9526;52.612;13.300;2022-09-12T09:36:19;19.90;99.90
18797;DHT22;9526;52.612;13.300;2022-09-12T09:38:47;20.00;99.90
18797;DHT22;9526;52.612;13.300;2022-09-12T09:41:21;20.10;99.90
18797;DHT22;9526;52.612;13.300;2022-09-12T09:43:57;20.10;99.90
18797;DHT22;9526;52.612;13.300;2022-09-12T09:46:23;20.30;99.90
18797;DHT22;9526;52.612;13.300;2022-09-12T09:48:48;20.60;99.90
18797;DHT22;9526;52.612;13.300;2022-09-12T09:51:13;20.70;99.90
18797;DHT22;9526;52.612;13.300;2022-09-12T09:53:44;20.90;99.90
18797;DHT22;9526;52.612;13.300;2022-09-12T09:56:26;20.90;99.90
18797;DHT22;9526;52.612;13.300;2022-09-12T09:58:51;21.20;99.90
18797;DHT22;9526;52.612;13.300;2022-09-12T10:01:16;21.40;99.90
18797;DHT22;9526;52.612;13.300;2022-09-12T10:03:47;21.30;99.90
18797;DHT22;9526;52.612;13.300;2022-09-12T10:09:06;21.20;99.90
18797;DHT22;9526;52.612;13.300;2022-09-12T10:11:40;21.60;99.90
18797;DHT22;9526;52.612;13.300;2022-09-12T10:14:27;22.00;99.90
18797;DHT22;9526;52.612;13.300;2022-09-12T10:16:52;22.30;99.90
18797;DHT22;9526;52.612;13.300;2022-09-12T10:19:21;22.70;99.90
18797;DHT22;9526;52.612;13.300;2022-09-12T10:21:49;23.00;99.90
18797;DHT22;9526;52.612;13.300;2022-09-12T10:24:20;23.30;99.90
18797;DHT22;9526;52.612;13.300;2022-09-12T10:26:50;23.30;99.90
18797;DHT22;9526;52.612;13.300;2022-09-12T10:29:22;23.20;99.90
18797;DHT22;9526;52.612;13.300;2022-09-12T10:31:51;23.50;99.90
18797;DHT22;9526;52.612;13.300;2022-09-12T10:34:27;23.70;99.90
18797;DHT22;9526;52.612;13.300;2022-09-12T10:36:59;23.90;99.90
18797;DHT22;9526;52.612;13.300;2022-09-12T10:39:25;23.50;99.90
18797;DHT22;9526;52.612;13.300;2022-09-12T10:41:49;23.50;99.90
18797;DHT22;9526;52.612;13.300;2022-09-12T10:44:15;23.70;99.90
18797;DHT22;9526;52.612;13.300;2022-09-12T10:46:39;23.50;99.90
18797;DHT22;9526;52.612;13.300;2022-09-12T10:49:22;23.40;99.90
18797;DHT22;9526;52.612;13.300;2022-09-12T10:51:49;23.50;99.90
18797;DHT22;9526;52.612;13.300;2022-09-12T10:54:16;23.50;99.90
18797;DHT22;9526;52.612;13.300;2022-09-12T10:56:51;23.50;99.90
18797;DHT22;9526;52.612;13.300;2022-09-12T10:59:27;23.70;99.90
18797;DHT22;9526;52.612;13.300;2022-09-12T11:01:59;23.90;99.90
18797;DHT22;9526;52.612;13.300;2022-09-12T11:04:32;24.00;99.90
18797;DHT22;9526;52.612;13.300;2022-09-12T11:07:26;24.10;99.90
18797;DHT22;9526;52.612;13.300;2022-09-12T11:10:20;24.20;99.90
18797;DHT22;9526;52.612;13.300;2022-09-12T11:12:52;24.00;99.90
18797;DHT22;9526;52.612;13.300;2022-09-12T11:15:31;23.80;99.90
18797;DHT22;9526;52.612;13.300;2022-09-12T11:18:04;23.80;99.90
18797;DHT22;9526;52.612;13.300;2022-09-12T11:20:45;23.90;99.90
18797;DHT22;9526;52.612;13.300;2022-09-12T11:23:40;24.00;99.90
18797;DHT22;9526;52.612;13.300;2022-09-12T11:26:20;24.20;99.90
18797;DHT22;9526;52.612;13.300;2022-09-12T11:28:55;23.80;99.90
18797;DHT22;9526;52.612;13.300;2022-09-12T11:31:51;24.10;99.90
18797;DHT22;9526;52.612;13.300;2022-09-12T11:34:48;24.30;99.90
18797;DHT22;9526;52.612;13.300;2022-09-12T11:37:33;23.80;99.40
18797;DHT22;9526;52.612;13.300;2022-09-12T11:40:20;23.80;99.90
18797;DHT22;9526;52.612;13.300;2022-09-12T11:42:52;24.00;99.90
18797;DHT22;9526;52.612;13.300;2022-09-12T11:45:22;24.00;99.90
18797;DHT22;9526;52.612;13.300;2022-09-12T11:47:52;24.20;99.90
18797;DHT22;9526;52.612;13.300;2022-09-12T11:50:21;24.20;99.60
18797;DHT22;9526;52.612;13.300;2022-09-12T11:52:50;24.50;99.90
18797;DHT22;9526;52.612;13.300;2022-09-12T11:55:17;24.70;99.90
18797;DHT22;9526;52.612;13.300;2022-09-12T11:57:44;24.40;99.90
18797;DHT22;9526;52.612;13.300;2022-09-12T12:00:16;24.50;99.90
18797;DHT22;9526;52.612;13.300;2022-09-12T12:02:47;24.40;99.90
18797;DHT22;9526;52.612;13.300;2022-09-12T12:05:19;24.70;99.90
18797;DHT22;9526;52.612;13.300;2022-09-12T12:07:52;24.90;99.90
18797;DHT22;9526;52.612;13.300;2022-09-12T12:10:22;24.60;99.40
18797;DHT22;9526;52.612;13.300;2022-09-12T12:12:48;24.70;99.90
18797;DHT22;9526;52.612;13.300;2022-09-12T12:15:13;25.00;99.90
18797;DHT22;9526;52.612;13.300;2022-09-12T12:17:38;25.10;99.90
18797;DHT22;9526;52.612;13.300;2022-09-12T12:20:04;25.10;98.50
18797;DHT22;9526;52.612;13.300;2022-09-12T12:22:30;24.80;97.50
18797;DHT22;9526;52.612;13.300;2022-09-12T12:25:24;25.10;99.20
18797;DHT22;9526;52.612;13.300;2022-09-12T12:28:00;25.00;98.80
18797;DHT22;9526;52.612;13.300;2022-09-12T12:30:59;24.70;99.90
18797;DHT22;9526;52.612;13.300;2022-09-12T12:33:51;24.60;99.90
18797;DHT22;9526;52.612;13.300;2022-09-12T12:36:38;24.60;99.90
18797;DHT22;9526;52.612;13.300;2022-09-12T12:48:48;24.40;99.90
18797;DHT22;9526;52.612;13.300;2022-09-12T12:51:53;24.60;99.90
18797;DHT22;9526;52.612;13.300;2022-09-12T12:57:17;24.80;99.90
18797;DHT22;9526;52.612;13.300;2022-09-12T12:59:49;24.90;99.90
18797;DHT22;9526;52.612;13.300;2022-09-12T13:02:18;25.00;99.90
18797;DHT22;9526;52.612;13.300;2022-09-12T13:04:45;25.10;99.90
18797;DHT22;9526;52.612;13.300;2022-09-12T13:07:24;24.70;98.90
18797;DHT22;9526;52.612;13.300;2022-09-12T13:09:51;24.60;99.90
18797;DHT22;9526;52.612;13.300;2022-09-12T13:12:18;24.70;99.90
18797;DHT22;9526;52.612;13.300;2022-09-12T13:14:52;24.80;99.90
18797;DHT22;9526;52.612;13.300;2022-09-12T13:17:24;24.70;99.90
18797;DHT22;9526;52.612;13.300;2022-09-12T13:19:52;24.30;99.90
18797;DHT22;9526;52.612;13.300;2022-09-12T13:22:44;24.30;99.90
18797;DHT22;9526;52.612;13.300;2022-09-12T13:25:21;24.30;99.90
18797;DHT22;9526;52.612;13.300;2022-09-12T13:28:14;24.10;99.80
18797;DHT22;9526;52.612;13.300;2022-09-12T13:30:42;23.90;99.90
18797;DHT22;9526;52.612;13.300;2022-09-12T13:33:18;24.00;99.90
18797;DHT22;9526;52.612;13.300;2022-09-12T13:36:22;24.30;99.90
18797;DHT22;9526;52.612;13.300;2022-09-12T13:39:12;24.50;99.90
18797;DHT22;9526;52.612;13.300;2022-09-12T13:44:51;24.70;99.90
18797;DHT22;9526;52.612;13.300;2022-09-12T13:47:25;24.50;99.80
18797;DHT22;9526;52.612;13.300;2022-09-12T13:49:53;24.40;99.90
18797;DHT22;9526;52.612;13.300;2022-09-12T13:52:21;24.30;99.80
18797;DHT22;9526;52.612;13.300;2022-09-12T13:54:49;24.20;99.90
18797;DHT22;9526;52.612;13.300;2022-09-12T13:57:32;24.00;99.50
18797;DHT22;9526;52.612;13.300;2022-09-12T13:59:59;23.90;99.90
18797;DHT22;9526;52.612;13.300;2022-09-12T14:02:28;23.80;98.90
18797;DHT22;9526;52.612;13.300;2022-09-12T14:04:53;23.90;99.90
18797;DHT22;9526;52.612;13.300;2022-09-12T14:07:45;23.90;99.90
18797;DHT22;9526;52.612;13.300;2022-09-12T14:10:21;23.80;99.90
18797;DHT22;9526;52.612;13.300;2022-09-12T14:12:49;23.90;99.90
18797;DHT22;9526;52.612;13.300;2022-09-12T14:15:16;23.90;99.90
18797;DHT22;9526;52.612;13.300;2022-09-12T14:17:50;23.80;99.80
18797;DHT22;9526;52.612;13.300;2022-09-12T14:20:15;24.00;99.90
18797;DHT22;9526;52.612;13.300;2022-09-12T14:22:40;23.90;99.90
18797;DHT22;9526;52.612;13.300;2022-09-12T14:25:13;23.80;99.90
18797;DHT22;9526;52.612;13.300;2022-09-12T14:27:41;23.80;99.90
18797;DHT22;9526;52.612;13.300;2022-09-12T14:30:19;23.80;99.90
18797;DHT22;9526;52.612;13.300;2022-09-12T14:33:03;23.80;99.90
18797;DHT22;9526;52.612;13.300;2022-09-12T14:35:27;23.80;99.90
18797;DHT22;9526;52.612;13.300;2022-09-12T14:37:51;23.90;99.90
18797;DHT22;9526;52.612;13.300;2022-09-12T14:40:17;23.90;99.90
18797;DHT22;9526;52.612;13.300;2022-09-12T14:42:42;23.80;99.90
18797;DHT22;9526;52.612;13.300;2022-09-12T14:45:13;23.80;99.90
18797;DHT22;9526;52.612;13.300;2022-09-12T14:47:40;23.80;99.90
18797;DHT22;9526;52.612;13.300;2022-09-12T14:50:15;23.70;99.90
18797;DHT22;9526;52.612;13.300;2022-09-12T14:52:40;23.50;99.90
18797;DHT22;9526;52.612;13.300;2022-09-12T14:55:29;23.50;99.90
18797;DHT22;9526;52.612;13.300;2022-09-12T14:58:13;23.30;99.90
18797;DHT22;9526;52.612;13.300;2022-09-12T15:00:55;23.40;99.90
18797;DHT22;9526;52.612;13.300;2022-09-12T15:03:26;23.40;99.90
18797;DHT22;9526;52.612;13.300;2022-09-12T15:05:52;23.40;99.90
18797;DHT22;9526;52.612;13.300;2022-09-12T15:08:16;23.40;99.90
18797;DHT22;9526;52.612;13.300;2022-09-12T15:10:39;23.40;99.90
18797;DHT22;9526;52.612;13.300;2022-09-12T15:13:19;23.40;99.90
18797;DHT22;9526;52.612;13.300;2022-09-12T15:15:47;23.40;99.90
18797;DHT22;9526;52.612;13.300;2022-09-12T15:18:12;23.20;99.90
18797;DHT22;9526;52.612;13.300;2022-09-12T15:20:36;23.20;99.90
18797;DHT22;9526;52.612;13.300;2022-09-12T15:23:02;23.20;99.90
18797;DHT22;9526;52.612;13.300;2022-09-12T15:25:27;23.20;99.90
18797;DHT22;9526;52.612;13.300;2022-09-12T15:27:51;23.10;99.90
18797;DHT22;9526;52.612;13.300;2022-09-12T15:30:17;23.20;99.90
18797;DHT22;9526;52.612;13.300;2022-09-12T15:32:43;23.00;99.90
18797;DHT22;9526;52.612;13.300;2022-09-12T15:35:09;23.00;99.90
18797;DHT22;9526;52.612;13.300;2022-09-12T15:37:34;23.00;99.90
18797;DHT22;9526;52.612;13.300;2022-09-12T15:39:59;22.90;99.90
18797;DHT22;9526;52.612;13.300;2022-09-12T15:42:27;22.80;99.90
18797;DHT22;9526;52.612;13.300;2022-09-12T15:44:52;22.80;99.90
18797;DHT22;9526;52.612;13.300;2022-09-12T15:47:21;22.80;99.90
18797;DHT22;9526;52.612;13.300;2022-09-12T15:49:45;22.80;99.90
18797;DHT22;9526;52.612;13.300;2022-09-12T15:52:13;22.70;99.90
18797;DHT22;9526;52.612;13.300;2022-09-12T15:54:37;22.70;99.90
18797;DHT22;9526;52.612;13.300;2022-09-12T15:57:03;22.60;99.90
18797;DHT22;9526;52.612;13.300;2022-09-12T15:59:27;22.60;99.90
18797;DHT22;9526;52.612;13.300;2022-09-12T16:01:51;22.60;99.90
18797;DHT22;9526;52.612;13.300;2022-09-12T16:04:20;22.50;99.90
18797;DHT22;9526;52.612;13.300;2022-09-12T16:06:44;22.50;99.90
18797;DHT22;9526;52.612;13.300;2022-09-12T16:09:08;22.40;99.90